Dumas, TX

9:14 PM CDT on June 28, 2017 (GMT -0500)
Moore County

Weather History for KDUX - May, 2013

Change the Weather History Date:

Thursday, May 23, 2013

  Actual Average (KDHT) Record (KDHT)
Temperature  
Mean Temperature 67 °F -  
Max Temperature 80 °F 80 °F 100 °F (2000)
Min Temperature 54 °F 50 °F 42 °F (1957)
Cooling Degree Days 2    
Growing Degree Days 17 (Base 50)    
Moisture  
Dew Point 50 °F    
Average Humidity 55    
Maximum Humidity 84    
Minimum Humidity 29    
Precipitation  
Precipitation 0.00 in - - ()
Sea Level Pressure  
Sea Level Pressure 29.99 in    
Wind  
Wind Speed 14 mph (East)    
Max Wind Speed 24 mph    
Max Gust Speed 32 mph    
Visibility 10 miles    
Events      
Averages and records for this station are not official NWS values.
T = Trace of Precipitation, MM = Missing Value Source: NWS Daily Summary

Daily Weather History Graph

Daily Weather History Graph

Search for Another Location

Airport or City:

Trip Planner

Search our weather history database for the weather conditions in past years. The results will help you decide how hot, cold, wet, or windy it might be!

Date:

Astronomy

May. 23, 2013 Rise Set
Actual Time 6:36 AM CDT 8:53 PM CDT
Civil Twilight 6:07 AM CDT 9:22 PM CDT
Nautical Twilight 5:32 AM CDT 9:57 PM CDT
Astronomical Twilight 4:53 AM CDT 10:36 PM CDT
Moon 7:30 PM CDT (5/23) 5:20 AM CDT (5/23)
Length of Visible Light 15h 14m
Length of Day
14h 16m
Waxing Gibbous, 97% of the Moon is Illuminated
May 23
Waxing Gibbous
May 24
Full
May 31
Last Quarter
Jun 8
New
Jun 16
First Quarter

Hourly Weather History & Observations

Time (CDT) Temp. Heat Index Dew Point Humidity Pressure Visibility Wind Dir Wind Speed Gust Speed Precip Events Conditions
12:15 AM 69.1 °F - 35.8 °F 29% 29.88 in 10.0 mi ESE 16.1 mph - N/A   Clear
12:35 AM 68.2 °F - 35.8 °F 30% 29.88 in 10.0 mi SE 15.0 mph - N/A   Clear
12:55 AM 67.6 °F - 35.8 °F 31% 29.88 in 10.0 mi SE 17.3 mph - N/A   Clear
1:15 AM 68.0 °F - 36.0 °F 31% 29.87 in 10.0 mi SE 18.4 mph 23.0 mph N/A   Clear
1:35 AM 68.0 °F - 36.1 °F 31% 29.88 in 10.0 mi SE 17.3 mph - N/A   Clear
1:55 AM 67.1 °F - 36.7 °F 33% 29.87 in 10.0 mi SE 17.3 mph - N/A   Clear
2:15 AM 66.4 °F - 36.9 °F 34% 29.87 in 10.0 mi SE 17.3 mph - N/A   Clear
2:35 AM 65.5 °F - 37.4 °F 35% 29.88 in 10.0 mi SE 16.1 mph - N/A   Clear
2:55 AM 64.4 °F - 37.6 °F 37% 29.88 in 10.0 mi SE 15.0 mph - N/A   Clear
3:15 AM 61.9 °F - 37.6 °F 41% 29.88 in 10.0 mi SE 13.8 mph - N/A   Clear
3:35 AM 61.9 °F - 38.1 °F 41% 29.88 in 10.0 mi SE 15.0 mph - N/A   Clear
3:55 AM 61.0 °F - 38.3 °F 43% 29.88 in 10.0 mi SE 12.7 mph - N/A   Clear
4:15 AM 59.9 °F - 38.5 °F 45% 29.88 in 10.0 mi ESE 11.5 mph - N/A   Clear
4:35 AM 58.3 °F - 39.2 °F 49% 29.90 in 10.0 mi ESE 8.1 mph - N/A   Clear
4:55 AM 57.2 °F - 40.1 °F 53% 29.91 in 10.0 mi East 8.1 mph - N/A   Clear
5:15 AM 57.4 °F - 41.0 °F 54% 29.91 in 10.0 mi ESE 9.2 mph - N/A   Clear
5:35 AM 57.4 °F - 41.5 °F 56% 29.91 in 10.0 mi ESE 11.5 mph - N/A   Clear
5:55 AM 56.7 °F - 42.3 °F 59% 29.91 in 10.0 mi ESE 10.4 mph - N/A   Clear
6:15 AM 55.6 °F - 42.6 °F 62% 29.91 in 10.0 mi SE 11.5 mph - N/A   Clear
6:35 AM 55.2 °F - 43.0 °F 63% 29.92 in 10.0 mi SE 12.7 mph - N/A   Clear
6:55 AM 54.5 °F - 43.2 °F 66% 29.95 in 10.0 mi ENE 5.8 mph - N/A   Clear
7:15 AM 55.4 °F - 44.1 °F 66% 29.96 in 10.0 mi NNE 5.8 mph - N/A   Clear
7:35 AM 55.6 °F - 44.1 °F 65% 29.98 in 10.0 mi NNE 4.6 mph - N/A   Clear
7:55 AM 57.9 °F - 45.5 °F 63% 29.98 in 10.0 mi NNE 6.9 mph - N/A   Clear
8:15 AM 57.7 °F - 45.1 °F 63% 29.98 in 10.0 mi ENE 9.2 mph - N/A   Clear
8:35 AM 59.5 °F - 46.8 °F 63% 30.00 in 10.0 mi NE 12.7 mph - N/A   Clear
8:55 AM 61.0 °F - 48.2 °F 63% 30.01 in 10.0 mi ENE 13.8 mph - N/A   Clear
9:15 AM 62.6 °F - 49.1 °F 61% 30.02 in 10.0 mi ENE 12.7 mph - N/A   Clear
9:35 AM 64.4 °F - 50.0 °F 59% 30.03 in 10.0 mi ENE 10.4 mph - N/A   Clear
9:55 AM 64.9 °F - 49.3 °F 57% 30.03 in 10.0 mi NE 11.5 mph - N/A   Clear
10:15 AM 67.1 °F - 50.2 °F 55% 30.04 in 10.0 mi ENE 8.1 mph - N/A   Clear
10:35 AM 69.1 °F - 50.9 °F 52% 30.04 in 10.0 mi ENE 11.5 mph - N/A   Clear
10:55 AM 70.3 °F - 51.3 °F 51% 30.04 in 10.0 mi NE 8.1 mph - N/A   Clear
11:15 AM 71.1 °F - 50.9 °F 49% 30.03 in 10.0 mi NNE 10.4 mph - N/A   Clear
11:35 AM 73.4 °F - 52.2 °F 47% 30.04 in 10.0 mi ENE 11.5 mph - N/A   Clear
11:55 AM 73.9 °F - 52.0 °F 46% 30.05 in 10.0 mi East 10.4 mph 16.1 mph N/A   Clear
12:15 PM 74.5 °F - 52.2 °F 46% 30.06 in 10.0 mi East 9.2 mph 18.4 mph N/A   Clear
12:35 PM 75.7 °F - 52.2 °F 44% 30.06 in 10.0 mi NE 11.5 mph 16.1 mph N/A   Clear
12:55 PM 75.4 °F - 52.3 °F 44% 30.06 in 10.0 mi NE 10.4 mph 17.3 mph N/A   Clear
1:15 PM 76.3 °F - 52.5 °F 43% 30.06 in 10.0 mi NNE 9.2 mph 16.1 mph N/A   Clear
1:35 PM 77.2 °F - 52.5 °F 42% 30.05 in 10.0 mi NE 10.4 mph 16.1 mph N/A   Clear
1:55 PM 78.4 °F - 53.6 °F 42% 30.06 in 10.0 mi East 10.4 mph 18.4 mph N/A   Clear
2:15 PM 79.9 °F - 54.9 °F 42% 30.05 in 10.0 mi ENE 11.5 mph 20.7 mph N/A   Clear
2:35 PM 80.6 °F 80.5 °F 55.2 °F 42% 30.05 in 10.0 mi NNE 20.7 mph 28.8 mph N/A   Clear
2:55 PM 75.6 °F - 54.7 °F 48% 30.05 in 10.0 mi NNE 20.7 mph 28.8 mph N/A   Clear
3:15 PM 76.5 °F - 55.6 °F 48% 30.04 in 10.0 mi NNE 21.9 mph 28.8 mph N/A   Clear
3:35 PM 75.6 °F - 55.9 °F 50% 30.04 in 10.0 mi NNE 24.2 mph 32.2 mph N/A   Clear
3:55 PM 73.8 °F - 56.1 °F 54% 30.03 in 10.0 mi NNE 21.9 mph 32.2 mph N/A   Clear
4:15 PM 72.3 °F - 56.5 °F 57% 30.02 in 10.0 mi NNE 24.2 mph 31.1 mph N/A   Scattered Clouds
4:35 PM 70.7 °F - 56.3 °F 60% 30.02 in 10.0 mi NE 21.9 mph 27.6 mph N/A   Clear
4:55 PM 71.2 °F - 56.3 °F 59% 30.02 in 10.0 mi NE 20.7 mph 26.5 mph N/A   Clear
5:15 PM 72.0 °F - 56.1 °F 57% 30.01 in 10.0 mi NE 21.9 mph 28.8 mph N/A   Clear
5:35 PM 72.0 °F - 56.8 °F 59% 30.02 in 10.0 mi ENE 21.9 mph 28.8 mph N/A   Scattered Clouds
5:55 PM 71.6 °F - 57.0 °F 60% 30.00 in 10.0 mi ENE 18.4 mph 24.2 mph N/A   Overcast
6:15 PM 70.9 °F - 57.2 °F 62% 30.00 in 10.0 mi ENE 18.4 mph 27.6 mph N/A   Mostly Cloudy
6:35 PM 72.9 °F - 57.7 °F 59% 29.99 in 10.0 mi ENE 20.7 mph 24.2 mph N/A   Mostly Cloudy
6:55 PM 73.8 °F - 59.5 °F 61% 29.99 in 10.0 mi East 21.9 mph 29.9 mph N/A   Mostly Cloudy
7:15 PM 71.8 °F - 59.7 °F 66% 29.99 in 10.0 mi East 12.7 mph - N/A   Mostly Cloudy
7:35 PM 71.6 °F - 59.5 °F 66% 30.00 in 10.0 mi East 16.1 mph - N/A   Mostly Cloudy
7:55 PM 72.5 °F - 57.9 °F 60% 30.00 in 10.0 mi East 20.7 mph 26.5 mph N/A   Mostly Cloudy
8:15 PM 69.8 °F - 58.1 °F 66% 30.01 in 10.0 mi East 17.3 mph 23.0 mph N/A   Scattered Clouds
8:35 PM 68.0 °F - 57.4 °F 69% 30.02 in 10.0 mi East 18.4 mph 21.9 mph N/A   Clear
8:55 PM 65.5 °F - 56.5 °F 73% 30.02 in 10.0 mi East 16.1 mph 23.0 mph N/A   Clear
9:15 PM 64.8 °F - 56.7 °F 75% 30.03 in 10.0 mi East 15.0 mph 21.9 mph N/A   Clear
9:35 PM 64.6 °F - 56.7 °F 75% 30.05 in 10.0 mi East 18.4 mph 23.0 mph N/A   Clear
9:55 PM 64.9 °F - 57.6 °F 77% 30.06 in 10.0 mi East 17.3 mph 21.9 mph N/A   Mostly Cloudy
10:15 PM 65.5 °F - 58.1 °F 77% 30.08 in 10.0 mi ESE 15.0 mph 23.0 mph N/A   Overcast
10:35 PM 66.2 °F - 58.5 °F 76% 30.11 in 10.0 mi ESE 15.0 mph 18.4 mph N/A   Mostly Cloudy
10:55 PM 65.8 °F - 59.0 °F 79% 30.11 in 10.0 mi ESE 15.0 mph 20.7 mph N/A   Scattered Clouds
11:15 PM 66.7 °F - 60.4 °F 80% 30.11 in 10.0 mi ESE 16.1 mph 23.0 mph N/A   Scattered Clouds
11:35 PM 66.2 °F - 60.8 °F 83% 30.10 in 10.0 mi ESE 15.0 mph 19.6 mph N/A   Scattered Clouds
11:55 PM 66.0 °F - 61.0 °F 84% 30.10 in 10.0 mi ESE 13.8 mph - N/A   Mostly Cloudy